sensor_id;sensor_type;location;lat;lon;timestamp;P1;durP1;ratioP1;P2;durP2;ratioP2
7306;SDS011;3694;48.732;9.248;2022-08-18T00:00:42;8.27;;;7.57;;
7306;SDS011;3694;48.732;9.248;2022-08-18T00:03:09;7.80;;;7.20;;
7306;SDS011;3694;48.732;9.248;2022-08-18T00:05:35;8.70;;;7.80;;
7306;SDS011;3694;48.732;9.248;2022-08-18T00:08:02;8.50;;;7.60;;
7306;SDS011;3694;48.732;9.248;2022-08-18T00:10:28;8.23;;;6.80;;
7306;SDS011;3694;48.732;9.248;2022-08-18T00:12:54;7.00;;;6.50;;
7306;SDS011;3694;48.732;9.248;2022-08-18T00:15:21;7.70;;;7.10;;
7306;SDS011;3694;48.732;9.248;2022-08-18T00:17:48;7.43;;;6.83;;
7306;SDS011;3694;48.732;9.248;2022-08-18T00:20:18;7.07;;;6.47;;
7306;SDS011;3694;48.732;9.248;2022-08-18T00:22:46;7.43;;;6.70;;
7306;SDS011;3694;48.732;9.248;2022-08-18T00:25:14;7.23;;;6.60;;
7306;SDS011;3694;48.732;9.248;2022-08-18T00:27:40;7.53;;;6.93;;
7306;SDS011;3694;48.732;9.248;2022-08-18T00:30:10;8.17;;;7.43;;
7306;SDS011;3694;48.732;9.248;2022-08-18T00:32:40;7.73;;;7.03;;
7306;SDS011;3694;48.732;9.248;2022-08-18T00:35:12;8.10;;;7.40;;
7306;SDS011;3694;48.732;9.248;2022-08-18T00:37:40;7.83;;;7.10;;
7306;SDS011;3694;48.732;9.248;2022-08-18T00:40:07;7.40;;;6.80;;
7306;SDS011;3694;48.732;9.248;2022-08-18T00:42:39;7.33;;;6.73;;
7306;SDS011;3694;48.732;9.248;2022-08-18T00:45:22;7.93;;;7.23;;
7306;SDS011;3694;48.732;9.248;2022-08-18T00:47:51;7.70;;;7.10;;
7306;SDS011;3694;48.732;9.248;2022-08-18T00:50:22;7.87;;;7.27;;
7306;SDS011;3694;48.732;9.248;2022-08-18T00:52:55;8.40;;;7.70;;
7306;SDS011;3694;48.732;9.248;2022-08-18T00:55:33;7.93;;;7.17;;
7306;SDS011;3694;48.732;9.248;2022-08-18T00:58:02;7.60;;;7.03;;
7306;SDS011;3694;48.732;9.248;2022-08-18T01:00:32;8.20;;;7.33;;
7306;SDS011;3694;48.732;9.248;2022-08-18T01:02:59;7.60;;;7.00;;
7306;SDS011;3694;48.732;9.248;2022-08-18T01:05:28;8.00;;;7.30;;
7306;SDS011;3694;48.732;9.248;2022-08-18T01:07:59;7.37;;;6.77;;
7306;SDS011;3694;48.732;9.248;2022-08-18T01:10:25;7.57;;;6.97;;
7306;SDS011;3694;48.732;9.248;2022-08-18T01:12:52;8.10;;;7.40;;
7306;SDS011;3694;48.732;9.248;2022-08-18T01:15:19;8.17;;;7.47;;
7306;SDS011;3694;48.732;9.248;2022-08-18T01:17:46;8.50;;;7.80;;
7306;SDS011;3694;48.732;9.248;2022-08-18T01:20:42;8.60;;;7.80;;
7306;SDS011;3694;48.732;9.248;2022-08-18T01:23:33;8.00;;;7.30;;
7306;SDS011;3694;48.732;9.248;2022-08-18T01:26:00;9.53;;;8.50;;
7306;SDS011;3694;48.732;9.248;2022-08-18T01:28:27;8.97;;;8.27;;
7306;SDS011;3694;48.732;9.248;2022-08-18T01:30:58;9.10;;;8.40;;
7306;SDS011;3694;48.732;9.248;2022-08-18T01:33:26;10.27;;;8.63;;
7306;SDS011;3694;48.732;9.248;2022-08-18T01:35:58;9.50;;;8.70;;
7306;SDS011;3694;48.732;9.248;2022-08-18T01:38:26;9.70;;;8.80;;
7306;SDS011;3694;48.732;9.248;2022-08-18T01:40:52;9.87;;;8.97;;
7306;SDS011;3694;48.732;9.248;2022-08-18T01:43:18;10.43;;;9.27;;
7306;SDS011;3694;48.732;9.248;2022-08-18T01:45:44;9.30;;;8.60;;
7306;SDS011;3694;48.732;9.248;2022-08-18T01:48:11;9.97;;;8.97;;
7306;SDS011;3694;48.732;9.248;2022-08-18T01:50:37;8.90;;;8.20;;
7306;SDS011;3694;48.732;9.248;2022-08-18T01:53:05;9.60;;;8.70;;
7306;SDS011;3694;48.732;9.248;2022-08-18T01:55:35;9.33;;;8.43;;
7306;SDS011;3694;48.732;9.248;2022-08-18T01:58:01;9.53;;;8.80;;
7306;SDS011;3694;48.732;9.248;2022-08-18T02:00:28;9.80;;;8.90;;
7306;SDS011;3694;48.732;9.248;2022-08-18T02:02:54;9.77;;;8.87;;
7306;SDS011;3694;48.732;9.248;2022-08-18T02:05:26;9.33;;;8.53;;
7306;SDS011;3694;48.732;9.248;2022-08-18T02:07:57;9.73;;;8.83;;
7306;SDS011;3694;48.732;9.248;2022-08-18T02:10:23;9.83;;;9.03;;
7306;SDS011;3694;48.732;9.248;2022-08-18T02:12:49;9.80;;;9.00;;
7306;SDS011;3694;48.732;9.248;2022-08-18T02:15:15;10.23;;;9.33;;
7306;SDS011;3694;48.732;9.248;2022-08-18T02:17:41;10.27;;;9.37;;
7306;SDS011;3694;48.732;9.248;2022-08-18T02:20:09;10.70;;;9.90;;
7306;SDS011;3694;48.732;9.248;2022-08-18T02:22:36;10.37;;;9.37;;
7306;SDS011;3694;48.732;9.248;2022-08-18T02:25:03;9.90;;;9.10;;
7306;SDS011;3694;48.732;9.248;2022-08-18T02:27:29;10.67;;;9.73;;
7306;SDS011;3694;48.732;9.248;2022-08-18T02:29:54;11.30;;;10.27;;
7306;SDS011;3694;48.732;9.248;2022-08-18T02:32:22;10.87;;;9.87;;
7306;SDS011;3694;48.732;9.248;2022-08-18T02:34:48;9.30;;;8.50;;
7306;SDS011;3694;48.732;9.248;2022-08-18T02:37:14;9.07;;;8.37;;
7306;SDS011;3694;48.732;9.248;2022-08-18T02:39:39;8.47;;;7.77;;
7306;SDS011;3694;48.732;9.248;2022-08-18T02:42:05;8.83;;;8.03;;
7306;SDS011;3694;48.732;9.248;2022-08-18T02:44:31;8.40;;;7.67;;
7306;SDS011;3694;48.732;9.248;2022-08-18T02:46:57;8.20;;;7.50;;
7306;SDS011;3694;48.732;9.248;2022-08-18T02:49:23;8.77;;;8.00;;
7306;SDS011;3694;48.732;9.248;2022-08-18T02:51:52;8.03;;;7.33;;
7306;SDS011;3694;48.732;9.248;2022-08-18T02:54:19;8.67;;;7.97;;
7306;SDS011;3694;48.732;9.248;2022-08-18T02:56:47;8.60;;;7.90;;
7306;SDS011;3694;48.732;9.248;2022-08-18T02:59:16;8.47;;;7.73;;
7306;SDS011;3694;48.732;9.248;2022-08-18T03:01:45;7.53;;;6.93;;
7306;SDS011;3694;48.732;9.248;2022-08-18T03:04:13;7.90;;;7.30;;
7306;SDS011;3694;48.732;9.248;2022-08-18T03:06:40;8.33;;;7.40;;
7306;SDS011;3694;48.732;9.248;2022-08-18T03:09:08;7.73;;;7.03;;
7306;SDS011;3694;48.732;9.248;2022-08-18T03:11:35;8.10;;;7.37;;
7306;SDS011;3694;48.732;9.248;2022-08-18T03:14:01;8.70;;;7.90;;
7306;SDS011;3694;48.732;9.248;2022-08-18T03:16:27;8.20;;;7.50;;
7306;SDS011;3694;48.732;9.248;2022-08-18T03:18:56;7.83;;;7.23;;
7306;SDS011;3694;48.732;9.248;2022-08-18T03:21:23;7.87;;;7.17;;
7306;SDS011;3694;48.732;9.248;2022-08-18T03:23:51;7.97;;;7.37;;
7306;SDS011;3694;48.732;9.248;2022-08-18T03:26:18;7.90;;;7.30;;
7306;SDS011;3694;48.732;9.248;2022-08-18T03:28:46;7.80;;;7.10;;
7306;SDS011;3694;48.732;9.248;2022-08-18T03:31:16;7.77;;;7.17;;
7306;SDS011;3694;48.732;9.248;2022-08-18T03:33:43;8.10;;;7.40;;
7306;SDS011;3694;48.732;9.248;2022-08-18T03:36:11;8.43;;;7.67;;
7306;SDS011;3694;48.732;9.248;2022-08-18T03:38:38;8.20;;;7.50;;
7306;SDS011;3694;48.732;9.248;2022-08-18T03:41:05;8.33;;;7.63;;
7306;SDS011;3694;48.732;9.248;2022-08-18T03:43:32;8.13;;;7.43;;
7306;SDS011;3694;48.732;9.248;2022-08-18T03:46:05;8.60;;;7.90;;
7306;SDS011;3694;48.732;9.248;2022-08-18T03:48:33;8.90;;;8.20;;
7306;SDS011;3694;48.732;9.248;2022-08-18T03:51:05;9.20;;;8.50;;
7306;SDS011;3694;48.732;9.248;2022-08-18T03:53:33;8.67;;;7.97;;
7306;SDS011;3694;48.732;9.248;2022-08-18T03:55:59;8.57;;;7.77;;
7306;SDS011;3694;48.732;9.248;2022-08-18T03:58:25;8.60;;;7.90;;
7306;SDS011;3694;48.732;9.248;2022-08-18T04:00:51;9.17;;;8.37;;
7306;SDS011;3694;48.732;9.248;2022-08-18T04:03:16;9.30;;;8.60;;
7306;SDS011;3694;48.732;9.248;2022-08-18T04:05:42;8.77;;;8.07;;
7306;SDS011;3694;48.732;9.248;2022-08-18T04:08:08;9.20;;;8.40;;
7306;SDS011;3694;48.732;9.248;2022-08-18T04:10:34;9.40;;;8.60;;
7306;SDS011;3694;48.732;9.248;2022-08-18T04:13:00;8.73;;;7.83;;
7306;SDS011;3694;48.732;9.248;2022-08-18T04:15:29;9.57;;;8.67;;
7306;SDS011;3694;48.732;9.248;2022-08-18T04:17:59;9.47;;;8.57;;
7306;SDS011;3694;48.732;9.248;2022-08-18T04:20:28;10.30;;;9.50;;
7306;SDS011;3694;48.732;9.248;2022-08-18T04:22:54;10.17;;;9.37;;
7306;SDS011;3694;48.732;9.248;2022-08-18T04:25:19;11.40;;;10.40;;
7306;SDS011;3694;48.732;9.248;2022-08-18T04:27:45;11.53;;;10.43;;
7306;SDS011;3694;48.732;9.248;2022-08-18T04:30:11;11.80;;;10.80;;
7306;SDS011;3694;48.732;9.248;2022-08-18T04:32:37;12.87;;;11.57;;
7306;SDS011;3694;48.732;9.248;2022-08-18T04:35:03;11.70;;;10.70;;
7306;SDS011;3694;48.732;9.248;2022-08-18T04:37:30;12.17;;;11.07;;
7306;SDS011;3694;48.732;9.248;2022-08-18T04:39:56;12.53;;;11.33;;
7306;SDS011;3694;48.732;9.248;2022-08-18T04:42:23;12.80;;;11.50;;
7306;SDS011;3694;48.732;9.248;2022-08-18T04:44:49;11.73;;;10.73;;
7306;SDS011;3694;48.732;9.248;2022-08-18T04:47:15;11.47;;;10.47;;
7306;SDS011;3694;48.732;9.248;2022-08-18T04:49:41;11.27;;;10.37;;
7306;SDS011;3694;48.732;9.248;2022-08-18T04:52:08;11.93;;;10.93;;
7306;SDS011;3694;48.732;9.248;2022-08-18T04:54:53;11.20;;;10.30;;
7306;SDS011;3694;48.732;9.248;2022-08-18T04:57:19;11.47;;;10.50;;
7306;SDS011;3694;48.732;9.248;2022-08-18T04:59:46;10.37;;;9.57;;
7306;SDS011;3694;48.732;9.248;2022-08-18T05:02:13;10.97;;;10.03;;
7306;SDS011;3694;48.732;9.248;2022-08-18T05:04:40;10.00;;;9.20;;
7306;SDS011;3694;48.732;9.248;2022-08-18T05:07:11;10.37;;;9.37;;
7306;SDS011;3694;48.732;9.248;2022-08-18T05:09:39;9.87;;;9.07;;
7306;SDS011;3694;48.732;9.248;2022-08-18T05:12:06;10.40;;;8.93;;
7306;SDS011;3694;48.732;9.248;2022-08-18T05:14:33;8.57;;;7.87;;
7306;SDS011;3694;48.732;9.248;2022-08-18T05:17:00;8.47;;;7.77;;
7306;SDS011;3694;48.732;9.248;2022-08-18T05:19:27;8.60;;;7.90;;
7306;SDS011;3694;48.732;9.248;2022-08-18T05:21:54;8.30;;;7.60;;
7306;SDS011;3694;48.732;9.248;2022-08-18T05:24:21;8.17;;;7.47;;
7306;SDS011;3694;48.732;9.248;2022-08-18T05:26:49;8.13;;;7.20;;
7306;SDS011;3694;48.732;9.248;2022-08-18T05:29:15;8.23;;;7.50;;
7306;SDS011;3694;48.732;9.248;2022-08-18T05:31:41;7.27;;;6.67;;
7306;SDS011;3694;48.732;9.248;2022-08-18T05:34:07;7.50;;;6.80;;
7306;SDS011;3694;48.732;9.248;2022-08-18T05:36:51;7.87;;;7.27;;
7306;SDS011;3694;48.732;9.248;2022-08-18T05:42:07;7.30;;;6.80;;
7306;SDS011;3694;48.732;9.248;2022-08-18T05:44:40;7.77;;;7.17;;
7306;SDS011;3694;48.732;9.248;2022-08-18T05:49:43;8.00;;;7.30;;
7306;SDS011;3694;48.732;9.248;2022-08-18T05:52:13;8.00;;;7.40;;
7306;SDS011;3694;48.732;9.248;2022-08-18T05:54:45;7.67;;;6.97;;
7306;SDS011;3694;48.732;9.248;2022-08-18T05:57:43;7.20;;;6.50;;
7306;SDS011;3694;48.732;9.248;2022-08-18T06:00:15;6.70;;;6.20;;
7306;SDS011;3694;48.732;9.248;2022-08-18T06:05:13;6.83;;;6.20;;
7306;SDS011;3694;48.732;9.248;2022-08-18T06:07:57;6.80;;;6.30;;
7306;SDS011;3694;48.732;9.248;2022-08-18T06:10:26;6.57;;;6.03;;
7306;SDS011;3694;48.732;9.248;2022-08-18T06:12:53;6.93;;;6.33;;
7306;SDS011;3694;48.732;9.248;2022-08-18T06:26:37;6.63;;;6.03;;
7306;SDS011;3694;48.732;9.248;2022-08-18T06:32:05;6.10;;;5.60;;
7306;SDS011;3694;48.732;9.248;2022-08-18T06:37:19;6.30;;;5.80;;
7306;SDS011;3694;48.732;9.248;2022-08-18T06:39:55;6.90;;;6.30;;
7306;SDS011;3694;48.732;9.248;2022-08-18T06:42:24;7.33;;;6.50;;
7306;SDS011;3694;48.732;9.248;2022-08-18T06:45:02;8.07;;;6.00;;
7306;SDS011;3694;48.732;9.248;2022-08-18T06:47:38;6.77;;;6.20;;
7306;SDS011;3694;48.732;9.248;2022-08-18T06:50:25;7.67;;;6.70;;
7306;SDS011;3694;48.732;9.248;2022-08-18T06:52:58;7.20;;;6.50;;
7306;SDS011;3694;48.732;9.248;2022-08-18T06:55:40;7.20;;;6.60;;
7306;SDS011;3694;48.732;9.248;2022-08-18T07:00:37;7.80;;;7.10;;
7306;SDS011;3694;48.732;9.248;2022-08-18T07:03:12;7.40;;;6.80;;
7306;SDS011;3694;48.732;9.248;2022-08-18T07:08:43;7.50;;;6.90;;
7306;SDS011;3694;48.732;9.248;2022-08-18T07:11:11;7.60;;;7.00;;
7306;SDS011;3694;48.732;9.248;2022-08-18T07:13:46;7.57;;;6.97;;
7306;SDS011;3694;48.732;9.248;2022-08-18T07:16:19;7.97;;;7.27;;
7306;SDS011;3694;48.732;9.248;2022-08-18T07:18:48;8.97;;;7.43;;
7306;SDS011;3694;48.732;9.248;2022-08-18T07:21:26;8.13;;;7.43;;
7306;SDS011;3694;48.732;9.248;2022-08-18T07:23:57;7.73;;;7.10;;
7306;SDS011;3694;48.732;9.248;2022-08-18T07:26:25;8.43;;;7.73;;
7306;SDS011;3694;48.732;9.248;2022-08-18T07:28:51;8.50;;;7.70;;
7306;SDS011;3694;48.732;9.248;2022-08-18T07:34:03;8.13;;;6.93;;
7306;SDS011;3694;48.732;9.248;2022-08-18T07:37:35;8.07;;;7.27;;
7306;SDS011;3694;48.732;9.248;2022-08-18T07:39:39;8.30;;;7.20;;
7306;SDS011;3694;48.732;9.248;2022-08-18T07:42:09;7.50;;;6.80;;
7306;SDS011;3694;48.732;9.248;2022-08-18T07:44:49;7.97;;;7.27;;
7306;SDS011;3694;48.732;9.248;2022-08-18T07:47:31;8.23;;;7.43;;
7306;SDS011;3694;48.732;9.248;2022-08-18T07:50:07;8.70;;;7.90;;
7306;SDS011;3694;48.732;9.248;2022-08-18T07:52:37;8.83;;;7.93;;
7306;SDS011;3694;48.732;9.248;2022-08-18T07:55:10;8.97;;;7.97;;
7306;SDS011;3694;48.732;9.248;2022-08-18T08:06:36;8.97;;;8.10;;
7306;SDS011;3694;48.732;9.248;2022-08-18T08:09:10;8.83;;;8.03;;
7306;SDS011;3694;48.732;9.248;2022-08-18T08:12:24;10.20;;;8.07;;
7306;SDS011;3694;48.732;9.248;2022-08-18T08:14:52;8.23;;;7.53;;
7306;SDS011;3694;48.732;9.248;2022-08-18T08:23:00;9.33;;;8.43;;
7306;SDS011;3694;48.732;9.248;2022-08-18T08:25:36;8.90;;;8.20;;
7306;SDS011;3694;48.732;9.248;2022-08-18T08:28:18;9.13;;;8.20;;
7306;SDS011;3694;48.732;9.248;2022-08-18T08:31:02;8.47;;;7.77;;
7306;SDS011;3694;48.732;9.248;2022-08-18T08:33:43;9.37;;;8.57;;
7306;SDS011;3694;48.732;9.248;2022-08-18T08:38:48;9.40;;;8.50;;
7306;SDS011;3694;48.732;9.248;2022-08-18T08:44:07;9.33;;;8.40;;
7306;SDS011;3694;48.732;9.248;2022-08-18T08:46:43;9.37;;;8.50;;
7306;SDS011;3694;48.732;9.248;2022-08-18T08:49:27;9.33;;;8.20;;
7306;SDS011;3694;48.732;9.248;2022-08-18T08:54:50;8.60;;;7.80;;
7306;SDS011;3694;48.732;9.248;2022-08-18T08:57:21;9.30;;;8.07;;
7306;SDS011;3694;48.732;9.248;2022-08-18T09:00:12;8.73;;;8.03;;
7306;SDS011;3694;48.732;9.248;2022-08-18T09:02:43;9.37;;;8.40;;
7306;SDS011;3694;48.732;9.248;2022-08-18T09:05:27;8.10;;;7.40;;
7306;SDS011;3694;48.732;9.248;2022-08-18T09:22:43;10.03;;;8.20;;
7306;SDS011;3694;48.732;9.248;2022-08-18T09:33:44;9.57;;;8.67;;
7306;SDS011;3694;48.732;9.248;2022-08-18T09:38:57;9.15;;;8.23;;
7306;SDS011;3694;48.732;9.248;2022-08-18T09:42:08;8.20;;;7.50;;
7306;SDS011;3694;48.732;9.248;2022-08-18T09:47:11;8.05;;;7.35;;
7306;SDS011;3694;48.732;9.248;2022-08-18T09:49:51;8.23;;;7.43;;
7306;SDS011;3694;48.732;9.248;2022-08-18T09:54:58;8.88;;;8.07;;
7306;SDS011;3694;48.732;9.248;2022-08-18T09:57:28;8.15;;;7.55;;
7306;SDS011;3694;48.732;9.248;2022-08-18T10:08:22;8.60;;;7.22;;
7306;SDS011;3694;48.732;9.248;2022-08-18T10:18:56;8.50;;;7.78;;
7306;SDS011;3694;48.732;9.248;2022-08-18T10:21:24;8.65;;;7.85;;
7306;SDS011;3694;48.732;9.248;2022-08-18T10:23:58;9.07;;;8.18;;
7306;SDS011;3694;48.732;9.248;2022-08-18T10:29:05;10.65;;;8.93;;
7306;SDS011;3694;48.732;9.248;2022-08-18T10:37:20;7.40;;;6.70;;
7306;SDS011;3694;48.732;9.248;2022-08-18T10:42:36;8.80;;;8.03;;
7306;SDS011;3694;48.732;9.248;2022-08-18T10:45:22;8.80;;;8.02;;
7306;SDS011;3694;48.732;9.248;2022-08-18T10:48:07;7.65;;;7.05;;
7306;SDS011;3694;48.732;9.248;2022-08-18T10:51:02;8.38;;;7.57;;
7306;SDS011;3694;48.732;9.248;2022-08-18T10:57:26;8.20;;;7.50;;
7306;SDS011;3694;48.732;9.248;2022-08-18T11:00:16;7.43;;;6.73;;
7306;SDS011;3694;48.732;9.248;2022-08-18T11:03:00;7.33;;;6.73;;
7306;SDS011;3694;48.732;9.248;2022-08-18T11:05:34;8.73;;;8.00;;
7306;SDS011;3694;48.732;9.248;2022-08-18T11:08:02;9.30;;;8.40;;
7306;SDS011;3694;48.732;9.248;2022-08-18T11:10:48;8.60;;;7.43;;
7306;SDS011;3694;48.732;9.248;2022-08-18T11:15:54;8.00;;;7.30;;
7306;SDS011;3694;48.732;9.248;2022-08-18T11:18:28;8.27;;;7.57;;
7306;SDS011;3694;48.732;9.248;2022-08-18T11:21:24;8.23;;;7.40;;
7306;SDS011;3694;48.732;9.248;2022-08-18T11:29:35;7.07;;;6.47;;
7306;SDS011;3694;48.732;9.248;2022-08-18T11:37:19;10.23;;;7.68;;
7306;SDS011;3694;48.732;9.248;2022-08-18T11:40:06;8.95;;;8.07;;
7306;SDS011;3694;48.732;9.248;2022-08-18T11:42:57;8.70;;;7.90;;
7306;SDS011;3694;48.732;9.248;2022-08-18T11:45:25;7.93;;;7.20;;
7306;SDS011;3694;48.732;9.248;2022-08-18T11:50:46;8.63;;;7.78;;
7306;SDS011;3694;48.732;9.248;2022-08-18T11:58:49;8.63;;;7.82;;
7306;SDS011;3694;48.732;9.248;2022-08-18T12:01:33;10.15;;;9.30;;
7306;SDS011;3694;48.732;9.248;2022-08-18T12:09:20;9.90;;;9.00;;
7306;SDS011;3694;48.732;9.248;2022-08-18T12:17:21;9.27;;;8.37;;
7306;SDS011;3694;48.732;9.248;2022-08-18T12:19:47;8.03;;;7.30;;
7306;SDS011;3694;48.732;9.248;2022-08-18T12:22:21;8.60;;;7.90;;
7306;SDS011;3694;48.732;9.248;2022-08-18T12:24:49;8.10;;;7.30;;
7306;SDS011;3694;48.732;9.248;2022-08-18T12:27:16;8.40;;;6.80;;
7306;SDS011;3694;48.732;9.248;2022-08-18T12:29:44;8.07;;;7.35;;
7306;SDS011;3694;48.732;9.248;2022-08-18T12:32:09;9.05;;;8.25;;
7306;SDS011;3694;48.732;9.248;2022-08-18T12:34:35;7.57;;;6.97;;
7306;SDS011;3694;48.732;9.248;2022-08-18T12:37:01;7.35;;;6.68;;
7306;SDS011;3694;48.732;9.248;2022-08-18T12:39:30;7.78;;;7.18;;
7306;SDS011;3694;48.732;9.248;2022-08-18T12:41:56;9.75;;;7.63;;
7306;SDS011;3694;48.732;9.248;2022-08-18T12:44:22;7.53;;;6.93;;
7306;SDS011;3694;48.732;9.248;2022-08-18T12:46:49;7.78;;;7.03;;
7306;SDS011;3694;48.732;9.248;2022-08-18T12:49:24;7.43;;;6.80;;
7306;SDS011;3694;48.732;9.248;2022-08-18T12:51:50;6.57;;;5.83;;
7306;SDS011;3694;48.732;9.248;2022-08-18T12:54:16;7.05;;;6.40;;
7306;SDS011;3694;48.732;9.248;2022-08-18T12:56:42;7.03;;;6.50;;
7306;SDS011;3694;48.732;9.248;2022-08-18T12:59:12;7.20;;;6.60;;
7306;SDS011;3694;48.732;9.248;2022-08-18T13:01:38;7.57;;;6.93;;
7306;SDS011;3694;48.732;9.248;2022-08-18T13:04:04;7.40;;;6.80;;
7306;SDS011;3694;48.732;9.248;2022-08-18T13:06:30;7.60;;;6.90;;
7306;SDS011;3694;48.732;9.248;2022-08-18T13:08:58;7.43;;;6.72;;
7306;SDS011;3694;48.732;9.248;2022-08-18T13:11:24;7.85;;;7.07;;
7306;SDS011;3694;48.732;9.248;2022-08-18T13:13:50;7.57;;;6.83;;
7306;SDS011;3694;48.732;9.248;2022-08-18T13:16:17;7.88;;;7.15;;
7306;SDS011;3694;48.732;9.248;2022-08-18T13:18:42;7.82;;;7.13;;
7306;SDS011;3694;48.732;9.248;2022-08-18T13:21:09;8.30;;;7.53;;
7306;SDS011;3694;48.732;9.248;2022-08-18T13:23:36;7.43;;;6.72;;
7306;SDS011;3694;48.732;9.248;2022-08-18T13:26:03;7.18;;;6.60;;
7306;SDS011;3694;48.732;9.248;2022-08-18T13:28:31;9.35;;;8.55;;
7306;SDS011;3694;48.732;9.248;2022-08-18T13:30:57;8.85;;;8.15;;
7306;SDS011;3694;48.732;9.248;2022-08-18T13:33:23;8.60;;;6.50;;
7306;SDS011;3694;48.732;9.248;2022-08-18T13:35:49;6.22;;;5.72;;
7306;SDS011;3694;48.732;9.248;2022-08-18T13:38:16;9.82;;;7.20;;
7306;SDS011;3694;48.732;9.248;2022-08-18T13:40:44;7.38;;;6.70;;
7306;SDS011;3694;48.732;9.248;2022-08-18T13:43:14;7.88;;;7.18;;
7306;SDS011;3694;48.732;9.248;2022-08-18T13:45:41;7.90;;;6.22;;
7306;SDS011;3694;48.732;9.248;2022-08-18T13:48:08;6.50;;;5.90;;
7306;SDS011;3694;48.732;9.248;2022-08-18T13:50:37;6.75;;;6.18;;
7306;SDS011;3694;48.732;9.248;2022-08-18T13:53:10;6.88;;;6.28;;
7306;SDS011;3694;48.732;9.248;2022-08-18T13:55:39;7.88;;;7.03;;
7306;SDS011;3694;48.732;9.248;2022-08-18T13:58:05;7.05;;;5.88;;
7306;SDS011;3694;48.732;9.248;2022-08-18T14:00:32;6.60;;;5.80;;
7306;SDS011;3694;48.732;9.248;2022-08-18T14:02:59;5.78;;;5.38;;
7306;SDS011;3694;48.732;9.248;2022-08-18T14:05:25;6.38;;;5.85;;
7306;SDS011;3694;48.732;9.248;2022-08-18T14:07:52;5.75;;;5.35;;
7306;SDS011;3694;48.732;9.248;2022-08-18T14:10:18;6.13;;;5.47;;
7306;SDS011;3694;48.732;9.248;2022-08-18T14:12:44;6.20;;;5.70;;
7306;SDS011;3694;48.732;9.248;2022-08-18T14:15:13;6.10;;;5.53;;
7306;SDS011;3694;48.732;9.248;2022-08-18T14:17:39;5.72;;;5.22;;
7306;SDS011;3694;48.732;9.248;2022-08-18T14:20:07;6.10;;;5.40;;
7306;SDS011;3694;48.732;9.248;2022-08-18T14:22:53;5.45;;;5.00;;
7306;SDS011;3694;48.732;9.248;2022-08-18T14:25:40;5.32;;;4.93;;
7306;SDS011;3694;48.732;9.248;2022-08-18T14:28:24;5.68;;;5.18;;
7306;SDS011;3694;48.732;9.248;2022-08-18T14:30:51;5.70;;;5.10;;
7306;SDS011;3694;48.732;9.248;2022-08-18T14:33:19;6.20;;;5.53;;
7306;SDS011;3694;48.732;9.248;2022-08-18T14:35:46;5.72;;;5.28;;
7306;SDS011;3694;48.732;9.248;2022-08-18T14:38:12;5.55;;;5.05;;
7306;SDS011;3694;48.732;9.248;2022-08-18T14:40:39;5.85;;;5.00;;
7306;SDS011;3694;48.732;9.248;2022-08-18T14:43:06;5.28;;;4.88;;
7306;SDS011;3694;48.732;9.248;2022-08-18T14:45:32;5.50;;;5.03;;
7306;SDS011;3694;48.732;9.248;2022-08-18T14:47:58;5.15;;;4.57;;
7306;SDS011;3694;48.732;9.248;2022-08-18T14:50:24;5.38;;;4.88;;
7306;SDS011;3694;48.732;9.248;2022-08-18T14:52:51;5.25;;;4.75;;
7306;SDS011;3694;48.732;9.248;2022-08-18T14:55:18;5.13;;;4.72;;
7306;SDS011;3694;48.732;9.248;2022-08-18T14:57:44;5.13;;;4.72;;
7306;SDS011;3694;48.732;9.248;2022-08-18T15:00:12;7.93;;;4.70;;
7306;SDS011;3694;48.732;9.248;2022-08-18T15:02:41;6.28;;;4.90;;
7306;SDS011;3694;48.732;9.248;2022-08-18T15:05:08;5.22;;;4.82;;
7306;SDS011;3694;48.732;9.248;2022-08-18T15:07:35;7.65;;;4.97;;
7306;SDS011;3694;48.732;9.248;2022-08-18T15:10:12;6.80;;;5.18;;
7306;SDS011;3694;48.732;9.248;2022-08-18T15:12:39;5.22;;;4.72;;
7306;SDS011;3694;48.732;9.248;2022-08-18T15:15:06;5.38;;;4.97;;
7306;SDS011;3694;48.732;9.248;2022-08-18T15:17:36;5.18;;;4.78;;
7306;SDS011;3694;48.732;9.248;2022-08-18T15:20:04;4.57;;;4.28;;
7306;SDS011;3694;48.732;9.248;2022-08-18T15:22:30;7.93;;;4.88;;
7306;SDS011;3694;48.732;9.248;2022-08-18T15:25:20;5.88;;;5.13;;
7306;SDS011;3694;48.732;9.248;2022-08-18T15:28:04;6.97;;;5.18;;
7306;SDS011;3694;48.732;9.248;2022-08-18T15:30:31;5.40;;;4.90;;
7306;SDS011;3694;48.732;9.248;2022-08-18T15:32:56;5.22;;;4.80;;
7306;SDS011;3694;48.732;9.248;2022-08-18T15:35:23;5.30;;;4.85;;
7306;SDS011;3694;48.732;9.248;2022-08-18T15:37:49;5.15;;;4.70;;
7306;SDS011;3694;48.732;9.248;2022-08-18T15:40:16;5.23;;;4.80;;
7306;SDS011;3694;48.732;9.248;2022-08-18T15:42:48;5.28;;;4.88;;
7306;SDS011;3694;48.732;9.248;2022-08-18T15:45:16;6.85;;;4.90;;
7306;SDS011;3694;48.732;9.248;2022-08-18T15:47:43;5.43;;;5.03;;
7306;SDS011;3694;48.732;9.248;2022-08-18T15:50:10;5.43;;;4.97;;
7306;SDS011;3694;48.732;9.248;2022-08-18T15:52:37;5.40;;;5.00;;
7306;SDS011;3694;48.732;9.248;2022-08-18T15:55:10;5.88;;;5.38;;
7306;SDS011;3694;48.732;9.248;2022-08-18T15:57:35;5.30;;;4.90;;
7306;SDS011;3694;48.732;9.248;2022-08-18T16:00:01;5.28;;;4.88;;
7306;SDS011;3694;48.732;9.248;2022-08-18T16:02:27;5.53;;;5.03;;
7306;SDS011;3694;48.732;9.248;2022-08-18T16:04:52;5.83;;;5.33;;
7306;SDS011;3694;48.732;9.248;2022-08-18T16:07:18;6.47;;;5.03;;
7306;SDS011;3694;48.732;9.248;2022-08-18T16:09:44;5.15;;;4.80;;
7306;SDS011;3694;48.732;9.248;2022-08-18T16:12:10;6.43;;;5.20;;
7306;SDS011;3694;48.732;9.248;2022-08-18T16:14:36;5.75;;;5.35;;
7306;SDS011;3694;48.732;9.248;2022-08-18T16:17:03;6.50;;;5.67;;
7306;SDS011;3694;48.732;9.248;2022-08-18T16:19:28;5.90;;;5.10;;
7306;SDS011;3694;48.732;9.248;2022-08-18T16:21:54;6.30;;;5.00;;
7306;SDS011;3694;48.732;9.248;2022-08-18T16:24:20;5.67;;;5.17;;
7306;SDS011;3694;48.732;9.248;2022-08-18T16:26:47;6.00;;;5.40;;
7306;SDS011;3694;48.732;9.248;2022-08-18T16:29:13;5.53;;;5.03;;
7306;SDS011;3694;48.732;9.248;2022-08-18T16:31:39;5.50;;;5.10;;
7306;SDS011;3694;48.732;9.248;2022-08-18T16:34:05;5.40;;;4.93;;
7306;SDS011;3694;48.732;9.248;2022-08-18T16:36:30;6.13;;;5.53;;
7306;SDS011;3694;48.732;9.248;2022-08-18T16:38:56;6.00;;;5.57;;
7306;SDS011;3694;48.732;9.248;2022-08-18T16:41:22;6.57;;;5.20;;
7306;SDS011;3694;48.732;9.248;2022-08-18T16:43:49;5.90;;;5.30;;
7306;SDS011;3694;48.732;9.248;2022-08-18T16:46:19;6.47;;;5.10;;
7306;SDS011;3694;48.732;9.248;2022-08-18T16:48:48;5.87;;;5.30;;
7306;SDS011;3694;48.732;9.248;2022-08-18T16:51:15;5.50;;;5.00;;
7306;SDS011;3694;48.732;9.248;2022-08-18T16:53:43;5.60;;;5.20;;
7306;SDS011;3694;48.732;9.248;2022-08-18T16:56:12;5.77;;;5.07;;
7306;SDS011;3694;48.732;9.248;2022-08-18T16:58:39;5.40;;;4.90;;
7306;SDS011;3694;48.732;9.248;2022-08-18T17:01:23;5.30;;;4.80;;
7306;SDS011;3694;48.732;9.248;2022-08-18T17:04:07;6.00;;;5.40;;
7306;SDS011;3694;48.732;9.248;2022-08-18T17:06:36;5.40;;;4.90;;
7306;SDS011;3694;48.732;9.248;2022-08-18T17:09:03;5.73;;;5.17;;
7306;SDS011;3694;48.732;9.248;2022-08-18T17:11:30;6.57;;;5.17;;
7306;SDS011;3694;48.732;9.248;2022-08-18T17:13:56;6.07;;;5.47;;
7306;SDS011;3694;48.732;9.248;2022-08-18T17:16:24;5.90;;;5.30;;
7306;SDS011;3694;48.732;9.248;2022-08-18T17:18:51;6.13;;;5.63;;
7306;SDS011;3694;48.732;9.248;2022-08-18T17:21:19;6.17;;;5.77;;
7306;SDS011;3694;48.732;9.248;2022-08-18T17:23:47;6.40;;;5.80;;
7306;SDS011;3694;48.732;9.248;2022-08-18T17:26:22;6.10;;;5.60;;
7306;SDS011;3694;48.732;9.248;2022-08-18T17:31:35;6.27;;;5.70;;
7306;SDS011;3694;48.732;9.248;2022-08-18T17:34:03;6.80;;;6.10;;
7306;SDS011;3694;48.732;9.248;2022-08-18T17:36:36;6.63;;;6.03;;
7306;SDS011;3694;48.732;9.248;2022-08-18T17:39:06;7.13;;;5.93;;
7306;SDS011;3694;48.732;9.248;2022-08-18T17:41:34;6.80;;;6.13;;
7306;SDS011;3694;48.732;9.248;2022-08-18T17:44:20;6.63;;;6.13;;
7306;SDS011;3694;48.732;9.248;2022-08-18T17:46:47;6.97;;;6.30;;
7306;SDS011;3694;48.732;9.248;2022-08-18T17:49:32;7.03;;;6.33;;
7306;SDS011;3694;48.732;9.248;2022-08-18T17:52:22;7.10;;;6.50;;
7306;SDS011;3694;48.732;9.248;2022-08-18T17:54:51;6.90;;;6.40;;
7306;SDS011;3694;48.732;9.248;2022-08-18T17:57:27;7.43;;;6.83;;
7306;SDS011;3694;48.732;9.248;2022-08-18T18:02:33;7.57;;;6.90;;
7306;SDS011;3694;48.732;9.248;2022-08-18T18:05:00;7.53;;;6.80;;
7306;SDS011;3694;48.732;9.248;2022-08-18T18:15:36;7.33;;;6.73;;